< < Back
Terminal Aerodrome Forecast


Current Version              Previous Versions:   1  2  3  4  5  6  7  8  9  

Terminal Aerodrome Forecast

806
FTUS42 KCHS 201900 AAB
TAFSAV
TAF AMD
KSAV 201947Z 2020/2118 02008KT P6SM SCT009 BKN015
      TEMPO 2020/2022 SCT005 BKN009
     FM210000 01005KT 6SM BR SCT005 BKN010
     FM210600 02005KT 3SM BR BKN005 OVC010
     FM211330 02007KT 6SM BR SCT005 OVC010=

Latest METAR

043
SAUS80 KWBC 210400
MTRSAV
METAR KSAV 210353Z 02007KT 7SM -RA OVC004 12/10 A3020 RMK AO2 RAB37
SLP225 P0000 T01170100


USA.gov is the U.S. government's official web portal to all federal, state and local government web resources and services.